Belle — WDC2472 — position and weather

sailwx.info

Track history (hours):
 
Tides and Currents Weather Stations Pressure Air Temp Water Temp Dewpoint Dewpoint Depression Visibility Wind Speed Wind Dir Waves Ship Positions

Belle

Owner: Florida Marine Transporters, Inc., Mandeville, LA. More information available from US FCC via Universal Licensing System and Coast Guard Vessel Documentation Center.

Last reported at 2017-Nov-09 13:42 UTC. Time now 2017-Dec-17 23:10 UTC.
Position N 29°51' W 091°56'.
Warning: this ship's position is 38 days out of date.

Length 26 m; draft 3 m.

Type: Other ship. MMSI: 366993620.

Date/timePositionNaut miles runAvg speedWind from/ knotsBaromVisibWave heightAir tempDewpointWater temp
2017-Nov-09 13:42N 29°51' W 091°56'1 4.7
2017-Nov-09 13:30N 29°50' W 091°57'2 4.9
2017-Nov-09 13:01N 29°50' W 091°60'3 5.2
2017-Nov-09 12:31N 29°49' W 092°03'2 4.8
2017-Nov-09 12:00N 29°48' W 092°05'2 4.9
2017-Nov-09 11:31N 29°47' W 092°08'2 4.8
2017-Nov-09 11:01N 29°47' W 092°11'2 3.4
2017-Nov-09 10:31N 29°47' W 092°12'0 0.4
2017-Nov-09 10:01N 29°47' W 092°13'1 2.7
2017-Nov-09 09:31N 29°48' W 092°14'1 2.1
2017-Nov-09 09:00N 29°48' W 092°15'2 4.3
2017-Nov-09 08:31N 29°49' W 092°17'2 4.3
2017-Nov-09 08:01N 29°50' W 092°19'38 4.1
2017-Nov-08 22:53N 29°56' W 093°02'1 4.0
2017-Nov-08 22:30N 29°56' W 093°04'2 3.9
2017-Nov-08 22:01N 29°56' W 093°06'2 3.8
2017-Nov-08 21:30N 29°56' W 093°08'2 3.5
2017-Nov-08 21:01N 29°57' W 093°10'2 3.7
2017-Nov-08 20:31N 29°58' W 093°12'2 3.7
2017-Nov-08 20:00N 29°60' W 093°13'2 3.3
2017-Nov-08 19:31N 30°01' W 093°14'2 3.1
2017-Nov-08 19:01N 30°02' W 093°15'1 2.8
2017-Nov-08 18:31N 30°03' W 093°16'2 3.5
2017-Nov-08 18:01N 30°05' W 093°17'2 3.4
2017-Nov-08 17:31N 30°06' W 093°18'0 0.3
2017-Nov-08 17:01N 30°06' W 093°18'0 0.0
2017-Nov-08 16:30N 30°06' W 093°18'0 0.0
2017-Nov-08 16:01N 30°06' W 093°18'0 0.0
2017-Nov-08 15:31N 30°06' W 093°18'0 0.0
2017-Nov-08 15:01N 30°06' W 093°18'0 0.0
2017-Nov-08 14:31N 30°06' W 093°18'0 0.0
2017-Nov-08 14:01N 30°06' W 093°18'0 0.0
2017-Nov-08 13:31N 30°06' W 093°18'0 0.0
2017-Nov-08 13:01N 30°06' W 093°18'1 1.5
2017-Nov-08 12:31N 30°06' W 093°19'2 4.0
2017-Nov-08 12:01N 30°04' W 093°21'2 3.6
2017-Nov-08 11:31N 30°04' W 093°23'2 4.0
2017-Nov-08 11:01N 30°04' W 093°25'2 3.9
2017-Nov-08 10:30N 30°04' W 093°27'2 3.9
2017-Nov-08 10:01N 30°04' W 093°29'2 3.9
2017-Nov-08 09:30N 30°04' W 093°32'  
2017-Nov-01 00:04N 30°03' W 093°43'1 5.7
2017-Oct-31 23:58N 30°03' W 093°43'2 4.9
2017-Oct-31 23:31N 30°04' W 093°40'3 5.1
2017-Oct-31 23:01N 30°04' W 093°37'3 5.3
2017-Oct-31 22:30N 30°04' W 093°34'3 5.3
2017-Oct-31 22:00N 30°04' W 093°31'3 5.3
2017-Oct-31 21:31N 30°04' W 093°28'3 5.3
2017-Oct-31 21:01N 30°04' W 093°25'3 5.3
2017-Oct-31 20:31N 30°04' W 093°22'2 3.0
2017-Oct-31 20:01N 30°04' W 093°20'0 0.0
2017-Oct-31 19:31N 30°04' W 093°20'2 4.8
2017-Oct-31 19:01N 30°07' W 093°20'3 6.9
2017-Oct-31 18:31N 30°10' W 093°19'1 2.0
2017-Oct-31 18:01N 30°11' W 093°19'0 0.0
2017-Oct-31 17:30N 30°11' W 093°19'0 0.0
2017-Oct-31 17:01N 30°11' W 093°19'0 0.0
2017-Oct-31 16:31N 30°11' W 093°19'0 0.0
2017-Oct-31 16:00N 30°11' W 093°19'0 0.0
2017-Oct-31 15:31N 30°11' W 093°19'0 0.0
2017-Oct-31 15:00N 30°11' W 093°19'0 0.0
2017-Oct-31 14:31N 30°11' W 093°19'0 0.0
2017-Oct-31 14:00N 30°11' W 093°19'0 0.0
2017-Oct-31 13:31N 30°11' W 093°19'0 0.0
2017-Oct-31 13:01N 30°11' W 093°19'0 0.0
2017-Oct-31 12:30N 30°11' W 093°19'0 0.0
2017-Oct-31 12:00N 30°11' W 093°19'0 0.0
2017-Oct-31 11:31N 30°11' W 093°19'0 0.0
2017-Oct-31 11:00N 30°11' W 093°19'0 0.0
2017-Oct-31 10:31N 30°11' W 093°19'0 0.0
2017-Oct-31 10:01N 30°11' W 093°19'0 0.0
2017-Oct-31 09:31N 30°11' W 093°19'0 0.0
2017-Oct-31 09:01N 30°11' W 093°19'0 0.0
2017-Oct-31 08:30N 30°11' W 093°19'0 0.0
2017-Oct-31 08:00N 30°11' W 093°19'0 0.0
2017-Oct-31 07:25N 30°11' W 093°19'0 0.0
2017-Oct-31 07:00N 30°11' W 093°19'0 0.0
2017-Oct-31 06:30N 30°11' W 093°19'0 0.0
2017-Oct-31 06:01N 30°11' W 093°19'0 0.0
2017-Oct-31 05:30N 30°11' W 093°19'0 0.0
2017-Oct-31 05:01N 30°11' W 093°19'0 0.0
2017-Oct-31 04:30N 30°11' W 093°19'0 0.0
2017-Oct-31 04:01N 30°11' W 093°19'0 0.0
2017-Oct-31 03:31N 30°11' W 093°19'0 0.0
2017-Oct-31 03:00N 30°11' W 093°19'0 0.0
2017-Oct-31 02:31N 30°11' W 093°19'0 0.0
2017-Oct-31 02:00N 30°11' W 093°19'0 0.0
2017-Oct-31 01:30N 30°11' W 093°19'0 0.0
2017-Oct-31 01:00N 30°11' W 093°19'0 0.3
2017-Oct-31 00:31N 30°11' W 093°19'3 5.3
2017-Oct-31 00:01N 30°09' W 093°20'3 6.1
2017-Oct-30 23:31N 30°05' W 093°20'1 1.4
2017-Oct-30 23:01N 30°05' W 093°20'0 0.1
2017-Oct-30 22:31N 30°05' W 093°20'3 5.6
2017-Oct-30 22:00N 30°08' W 093°20'3 6.6
2017-Oct-30 21:30N 30°11' W 093°19'0 0.6
2017-Oct-30 21:01N 30°11' W 093°19'0 0.0
2017-Oct-30 20:31N 30°11' W 093°19'0 0.0
2017-Oct-30 20:01N 30°11' W 093°19'0 0.0
2017-Oct-30 19:31N 30°11' W 093°19'0 0.0
2017-Oct-30 19:00N 30°11' W 093°19'0 0.0
2017-Oct-30 18:30N 30°11' W 093°19'0 0.0
2017-Oct-30 18:01N 30°11' W 093°19'0 0.0
2017-Oct-30 17:30N 30°11' W 093°19'0 0.0
2017-Oct-30 17:01N 30°11' W 093°19'0 0.0
2017-Oct-30 16:31N 30°11' W 093°19'0 0.0
2017-Oct-30 16:01N 30°11' W 093°19'0 0.0
2017-Oct-30 15:30N 30°11' W 093°19'0 0.0
2017-Oct-30 15:01N 30°11' W 093°19'0 0.0
2017-Oct-30 14:01N 30°11' W 093°19'  
Track history (hours):
 
Tides and Currents Weather Stations Pressure Air Temp Water Temp Dewpoint Dewpoint Depression Visibility Wind Speed Wind Dir Waves Ship Positions

Belle

Owner: Florida Marine Transporters, Inc., Mandeville, LA. More information available from US FCC via Universal Licensing System and Coast Guard Vessel Documentation Center.

Last reported at 2017-Nov-09 13:42 UTC. Time now 2017-Dec-17 23:10 UTC.
Position N 29°51' W 091°56'.
Warning: this ship's position is 38 days out of date.

Length 26 m; draft 3 m.

Type: Other ship. MMSI: 366993620.

Date/timePositionNaut miles runAvg speedWind from/ knotsBaromVisibWave heightAir tempDewpointWater temp
2017-Nov-09 13:42N 29°51' W 091°56'1 4.7
2017-Nov-09 13:30N 29°50' W 091°57'2 4.9
2017-Nov-09 13:01N 29°50' W 091°60'3 5.2
2017-Nov-09 12:31N 29°49' W 092°03'2 4.8
2017-Nov-09 12:00N 29°48' W 092°05'2 4.9
2017-Nov-09 11:31N 29°47' W 092°08'2 4.8
2017-Nov-09 11:01N 29°47' W 092°11'2 3.4
2017-Nov-09 10:31N 29°47' W 092°12'0 0.4
2017-Nov-09 10:01N 29°47' W 092°13'1 2.7
2017-Nov-09 09:31N 29°48' W 092°14'1 2.1
2017-Nov-09 09:00N 29°48' W 092°15'2 4.3
2017-Nov-09 08:31N 29°49' W 092°17'2 4.3
2017-Nov-09 08:01N 29°50' W 092°19'38 4.1
2017-Nov-08 22:53N 29°56' W 093°02'1 4.0
2017-Nov-08 22:30N 29°56' W 093°04'2 3.9
2017-Nov-08 22:01N 29°56' W 093°06'2 3.8
2017-Nov-08 21:30N 29°56' W 093°08'2 3.5
2017-Nov-08 21:01N 29°57' W 093°10'2 3.7
2017-Nov-08 20:31N 29°58' W 093°12'2 3.7
2017-Nov-08 20:00N 29°60' W 093°13'2 3.3
2017-Nov-08 19:31N 30°01' W 093°14'2 3.1
2017-Nov-08 19:01N 30°02' W 093°15'1 2.8
2017-Nov-08 18:31N 30°03' W 093°16'2 3.5
2017-Nov-08 18:01N 30°05' W 093°17'2 3.4
2017-Nov-08 17:31N 30°06' W 093°18'0 0.3
2017-Nov-08 17:01N 30°06' W 093°18'0 0.0
2017-Nov-08 16:30N 30°06' W 093°18'0 0.0
2017-Nov-08 16:01N 30°06' W 093°18'0 0.0
2017-Nov-08 15:31N 30°06' W 093°18'0 0.0
2017-Nov-08 15:01N 30°06' W 093°18'0 0.0
2017-Nov-08 14:31N 30°06' W 093°18'0 0.0
2017-Nov-08 14:01N 30°06' W 093°18'0 0.0
2017-Nov-08 13:31N 30°06' W 093°18'0 0.0
2017-Nov-08 13:01N 30°06' W 093°18'1 1.5
2017-Nov-08 12:31N 30°06' W 093°19'2 4.0
2017-Nov-08 12:01N 30°04' W 093°21'2 3.6
2017-Nov-08 11:31N 30°04' W 093°23'2 4.0
2017-Nov-08 11:01N 30°04' W 093°25'2 3.9
2017-Nov-08 10:30N 30°04' W 093°27'2 3.9
2017-Nov-08 10:01N 30°04' W 093°29'2 3.9
2017-Nov-08 09:30N 30°04' W 093°32'  
2017-Nov-01 00:04N 30°03' W 093°43'1 5.7
2017-Oct-31 23:58N 30°03' W 093°43'2 4.9
2017-Oct-31 23:31N 30°04' W 093°40'3 5.1
2017-Oct-31 23:01N 30°04' W 093°37'3 5.3
2017-Oct-31 22:30N 30°04' W 093°34'3 5.3
2017-Oct-31 22:00N 30°04' W 093°31'3 5.3
2017-Oct-31 21:31N 30°04' W 093°28'3 5.3
2017-Oct-31 21:01N 30°04' W 093°25'3 5.3
2017-Oct-31 20:31N 30°04' W 093°22'2 3.0
2017-Oct-31 20:01N 30°04' W 093°20'0 0.0
2017-Oct-31 19:31N 30°04' W 093°20'2 4.8
2017-Oct-31 19:01N 30°07' W 093°20'3 6.9
2017-Oct-31 18:31N 30°10' W 093°19'1 2.0
2017-Oct-31 18:01N 30°11' W 093°19'0 0.0
2017-Oct-31 17:30N 30°11' W 093°19'0 0.0
2017-Oct-31 17:01N 30°11' W 093°19'0 0.0
2017-Oct-31 16:31N 30°11' W 093°19'0 0.0
2017-Oct-31 16:00N 30°11' W 093°19'0 0.0
2017-Oct-31 15:31N 30°11' W 093°19'0 0.0
2017-Oct-31 15:00N 30°11' W 093°19'0 0.0
2017-Oct-31 14:31N 30°11' W 093°19'0 0.0
2017-Oct-31 14:00N 30°11' W 093°19'0 0.0
2017-Oct-31 13:31N 30°11' W 093°19'0 0.0
2017-Oct-31 13:01N 30°11' W 093°19'0 0.0
2017-Oct-31 12:30N 30°11' W 093°19'0 0.0
2017-Oct-31 12:00N 30°11' W 093°19'0 0.0
2017-Oct-31 11:31N 30°11' W 093°19'0 0.0
2017-Oct-31 11:00N 30°11' W 093°19'0 0.0
2017-Oct-31 10:31N 30°11' W 093°19'0 0.0
2017-Oct-31 10:01N 30°11' W 093°19'0 0.0
2017-Oct-31 09:31N 30°11' W 093°19'0 0.0
2017-Oct-31 09:01N 30°11' W 093°19'0 0.0
2017-Oct-31 08:30N 30°11' W 093°19'0 0.0
2017-Oct-31 08:00N 30°11' W 093°19'0 0.0
2017-Oct-31 07:25N 30°11' W 093°19'0 0.0
2017-Oct-31 07:00N 30°11' W 093°19'0 0.0
2017-Oct-31 06:30N 30°11' W 093°19'0 0.0
2017-Oct-31 06:01N 30°11' W 093°19'0 0.0
2017-Oct-31 05:30N 30°11' W 093°19'0 0.0
2017-Oct-31 05:01N 30°11' W 093°19'0 0.0
2017-Oct-31 04:30N 30°11' W 093°19'0 0.0
2017-Oct-31 04:01N 30°11' W 093°19'0 0.0
2017-Oct-31 03:31N 30°11' W 093°19'0 0.0
2017-Oct-31 03:00N 30°11' W 093°19'0 0.0
2017-Oct-31 02:31N 30°11' W 093°19'0 0.0
2017-Oct-31 02:00N 30°11' W 093°19'0 0.0
2017-Oct-31 01:30N 30°11' W 093°19'0 0.0
2017-Oct-31 01:00N 30°11' W 093°19'0 0.3
2017-Oct-31 00:31N 30°11' W 093°19'3 5.3
2017-Oct-31 00:01N 30°09' W 093°20'3 6.1
2017-Oct-30 23:31N 30°05' W 093°20'1 1.4
2017-Oct-30 23:01N 30°05' W 093°20'0 0.1
2017-Oct-30 22:31N 30°05' W 093°20'3 5.6
2017-Oct-30 22:00N 30°08' W 093°20'3 6.6
2017-Oct-30 21:30N 30°11' W 093°19'0 0.6
2017-Oct-30 21:01N 30°11' W 093°19'0 0.0
2017-Oct-30 20:31N 30°11' W 093°19'0 0.0
2017-Oct-30 20:01N 30°11' W 093°19'0 0.0
2017-Oct-30 19:31N 30°11' W 093°19'0 0.0
2017-Oct-30 19:00N 30°11' W 093°19'0 0.0
2017-Oct-30 18:30N 30°11' W 093°19'0 0.0
2017-Oct-30 18:01N 30°11' W 093°19'0 0.0
2017-Oct-30 17:30N 30°11' W 093°19'0 0.0
2017-Oct-30 17:01N 30°11' W 093°19'0 0.0
2017-Oct-30 16:31N 30°11' W 093°19'0 0.0
2017-Oct-30 16:01N 30°11' W 093°19'0 0.0
2017-Oct-30 15:30N 30°11' W 093°19'0 0.0
2017-Oct-30 15:01N 30°11' W 093°19'0 0.0
2017-Oct-30 14:01N 30°11' W 093°19'  

Dump ship's entire track history